createdAt,value
2017-12-08T00:03:36.461Z,0
2017-12-08T00:08:36.449Z,0
2017-12-08T00:13:36.067Z,0
2017-12-08T00:18:36.407Z,0
2017-12-08T00:23:36.221Z,0
2017-12-08T00:28:36.143Z,0
2017-12-08T00:33:36.095Z,0
2017-12-08T00:38:35.999Z,0
2017-12-08T00:43:35.933Z,0
2017-12-08T00:48:35.897Z,0
2017-12-08T00:53:35.818Z,0
2017-12-08T00:58:35.760Z,0
2017-12-08T01:03:35.674Z,0
2017-12-08T01:08:35.616Z,0
2017-12-08T01:13:35.553Z,0
2017-12-08T01:18:35.486Z,0
2017-12-08T01:23:35.416Z,0
2017-12-08T01:28:35.354Z,0
2017-12-08T01:33:35.092Z,0
2017-12-08T01:38:35.212Z,0
2017-12-08T01:43:35.144Z,0
2017-12-08T01:48:35.071Z,0
2017-12-08T01:53:35.036Z,0
2017-12-08T01:58:34.952Z,0
2017-12-08T02:03:34.954Z,0
2017-12-08T02:08:34.600Z,0
2017-12-08T02:13:34.540Z,0
2017-12-08T02:18:34.684Z,0
2017-12-08T02:23:34.618Z,0
2017-12-08T02:28:34.604Z,0
2017-12-08T02:33:34.536Z,0
2017-12-08T02:38:34.170Z,0
2017-12-08T02:43:34.338Z,0
2017-12-08T02:48:34.285Z,0
2017-12-08T02:53:34.230Z,0
2017-12-08T02:58:34.004Z,0
2017-12-08T03:03:34.091Z,0
2017-12-08T03:08:34.117Z,0
2017-12-08T03:13:33.957Z,0
2017-12-08T03:18:33.879Z,0
2017-12-08T03:23:33.821Z,0
2017-12-08T03:28:33.759Z,0
2017-12-08T03:33:33.671Z,0
2017-12-08T03:38:33.361Z,0
2017-12-08T03:43:33.545Z,0
2017-12-08T03:48:33.502Z,0
2017-12-08T03:53:33.426Z,0
2017-12-08T03:58:33.085Z,0
2017-12-08T04:03:33.313Z,0
2017-12-08T04:08:33.205Z,0
2017-12-08T04:13:33.179Z,0
2017-12-08T04:18:33.073Z,0
2017-12-08T04:23:32.995Z,0
2017-12-08T04:28:32.935Z,0
2017-12-08T04:33:32.832Z,0
2017-12-08T04:38:32.772Z,0
2017-12-08T04:43:32.728Z,0
2017-12-08T04:48:32.638Z,0
2017-12-08T04:53:32.559Z,0
2017-12-08T04:58:32.471Z,0
2017-12-08T05:03:32.270Z,0
2017-12-08T05:08:32.364Z,0
2017-12-08T05:13:32.278Z,0
2017-12-08T05:18:31.952Z,0
2017-12-08T05:23:32.120Z,0
2017-12-08T05:28:32.077Z,0
2017-12-08T05:33:31.470Z,0
2017-12-08T05:38:31.935Z,0
2017-12-08T05:43:31.840Z,0
2017-12-08T05:48:31.814Z,0
2017-12-08T05:53:31.722Z,0
2017-12-08T05:58:31.639Z,0
2017-12-08T06:03:31.636Z,0
2017-12-08T06:08:31.217Z,0
2017-12-08T06:13:31.404Z,0
2017-12-08T06:18:31.088Z,0
2017-12-08T06:23:31.274Z,0
2017-12-08T06:28:31.219Z,0
2017-12-08T06:33:31.117Z,0
2017-12-08T06:38:30.801Z,0
2017-12-08T06:43:30.985Z,0
2017-12-08T06:48:30.975Z,0
2017-12-08T06:53:30.576Z,0
2017-12-08T06:58:30.774Z,0
2017-12-08T07:03:30.688Z,0
2017-12-08T07:08:30.611Z,0
2017-12-08T07:13:30.554Z,0
2017-12-08T07:18:30.240Z,0
2017-12-08T07:23:30.302Z,0
2017-12-08T07:28:30.459Z,0
2017-12-08T07:33:30.293Z,0
2017-12-08T07:38:30.256Z,0
2017-12-08T07:43:30.174Z,0
2017-12-08T07:48:30.155Z,0
2017-12-08T07:53:30.045Z,0
2017-12-08T07:58:30.006Z,0
2017-12-08T08:03:29.651Z,0
2017-12-08T08:08:29.589Z,4
2017-12-08T08:13:29.861Z,0
2017-12-08T08:18:29.727Z,4
2017-12-08T08:23:29.679Z,0
2017-12-08T08:28:29.351Z,0
2017-12-08T08:33:29.556Z,0
2017-12-08T08:38:29.219Z,4
2017-12-08T08:43:29.485Z,4
2017-12-08T08:48:29.135Z,4
2017-12-08T08:53:29.294Z,32
2017-12-08T08:58:28.993Z,20
2017-12-08T09:03:29.199Z,24
2017-12-08T09:08:29.163Z,20
2017-12-08T09:13:28.831Z,20
2017-12-08T09:18:29.030Z,32
2017-12-08T09:23:28.911Z,28
2017-12-08T09:28:28.867Z,40
2017-12-08T09:33:28.791Z,36
2017-12-08T09:38:28.747Z,32
2017-12-08T09:43:28.664Z,40
2017-12-08T09:48:28.608Z,44
2017-12-08T09:53:28.599Z,80
2017-12-08T09:58:28.566Z,112
2017-12-08T10:03:28.412Z,88
2017-12-08T10:08:28.355Z,88
2017-12-08T10:13:28.302Z,48
2017-12-08T10:18:28.323Z,40
2017-12-08T10:23:28.180Z,88
2017-12-08T10:28:28.116Z,152
2017-12-08T10:33:28.052Z,196
2017-12-08T10:38:27.980Z,224
2017-12-08T10:43:28.010Z,212
2017-12-08T10:48:27.594Z,240
2017-12-08T10:53:27.795Z,276
2017-12-08T10:58:27.738Z,312
2017-12-08T11:03:27.678Z,204
2017-12-08T11:08:27.666Z,120
2017-12-08T11:13:27.553Z,80
2017-12-08T11:18:27.574Z,100
2017-12-08T11:23:27.421Z,100
2017-12-08T11:28:27.365Z,172
2017-12-08T11:33:27.295Z,168
2017-12-08T11:38:27.298Z,40
2017-12-08T11:43:27.281Z,20
2017-12-08T11:48:27.221Z,52
2017-12-08T11:53:27.047Z,56
2017-12-08T11:58:26.982Z,32
2017-12-08T12:03:26.915Z,24
2017-12-08T12:08:26.849Z,32
2017-12-08T12:13:26.521Z,32
2017-12-08T12:18:26.794Z,28
2017-12-08T12:23:26.669Z,24
2017-12-08T12:28:26.587Z,24
2017-12-08T12:33:26.297Z,20
2017-12-08T12:38:26.233Z,20
2017-12-08T12:43:26.417Z,20
2017-12-08T12:48:26.455Z,32
2017-12-08T12:53:26.085Z,40
2017-12-08T12:58:26.230Z,36
2017-12-08T13:03:25.921Z,32
2017-12-08T13:08:26.098Z,60
2017-12-08T13:13:26.041Z,52
2017-12-08T13:18:25.989Z,28
2017-12-08T13:23:25.921Z,20
2017-12-08T13:28:25.873Z,16
2017-12-08T13:33:25.854Z,12
2017-12-08T13:38:25.591Z,24
2017-12-08T13:43:25.670Z,60
2017-12-08T13:48:25.641Z,48
2017-12-08T13:53:25.617Z,44
2017-12-08T13:58:25.556Z,116
2017-12-08T14:03:25.152Z,88
2017-12-08T14:08:25.362Z,24
2017-12-08T14:13:25.039Z,16
2017-12-08T14:18:25.233Z,24
2017-12-08T14:23:24.918Z,80
2017-12-08T14:28:25.113Z,32
2017-12-08T14:33:24.785Z,12
2017-12-08T14:38:24.734Z,8
2017-12-08T14:43:24.915Z,4
2017-12-08T14:48:24.872Z,32
2017-12-08T14:53:24.818Z,36
2017-12-08T14:58:24.570Z,20
2017-12-08T15:03:24.676Z,16
2017-12-08T15:08:24.356Z,16
2017-12-08T15:13:24.560Z,12
2017-12-08T15:18:24.230Z,8
2017-12-08T15:23:24.464Z,8
2017-12-08T15:28:24.377Z,4
2017-12-08T15:33:24.054Z,4
2017-12-08T15:38:24.240Z,4
2017-12-08T15:43:24.180Z,0
2017-12-08T15:48:24.116Z,4
2017-12-08T15:53:24.113Z,4
2017-12-08T15:58:23.998Z,4
2017-12-08T16:03:23.974Z,4
2017-12-08T16:08:23.879Z,4
2017-12-08T16:13:23.549Z,4
2017-12-08T16:18:23.739Z,4
2017-12-08T16:23:23.672Z,4
2017-12-08T16:28:23.389Z,4
2017-12-08T16:33:23.447Z,4
2017-12-08T16:38:23.365Z,4
2017-12-08T16:43:23.454Z,4
2017-12-08T16:48:23.517Z,4
2017-12-08T16:53:23.354Z,4
2017-12-08T16:58:23.354Z,4
2017-12-08T17:03:23.257Z,4
2017-12-08T17:08:22.861Z,4
2017-12-08T17:13:23.054Z,4
2017-12-08T17:18:22.994Z,4
2017-12-08T17:23:22.918Z,4
2017-12-08T17:28:22.959Z,4
2017-12-08T17:33:22.808Z,4
2017-12-08T17:38:22.837Z,4
2017-12-08T17:43:22.701Z,4
2017-12-08T17:48:22.614Z,4
2017-12-08T17:53:22.571Z,4
2017-12-08T17:58:22.505Z,4
2017-12-08T18:03:22.451Z,4
2017-12-08T18:08:22.369Z,4
2017-12-08T18:13:22.308Z,4
2017-12-08T18:18:22.247Z,4
2017-12-08T18:23:22.274Z,4
2017-12-08T18:28:22.214Z,4
2017-12-08T18:33:22.057Z,4
2017-12-08T18:38:21.997Z,4
2017-12-08T18:43:21.947Z,4
2017-12-08T18:48:21.973Z,4
2017-12-08T18:53:21.854Z,4
2017-12-08T18:58:21.764Z,4
2017-12-08T19:03:21.788Z,4
2017-12-08T19:08:21.638Z,4
2017-12-08T19:13:21.636Z,4
2017-12-08T19:18:21.529Z,4
2017-12-08T19:23:21.524Z,4
2017-12-08T19:28:21.404Z,4
2017-12-08T19:33:21.342Z,0
2017-12-08T19:38:21.304Z,0
2017-12-08T19:43:21.252Z,0
2017-12-08T19:48:21.242Z,0
2017-12-08T19:53:21.094Z,0
2017-12-08T19:58:21.060Z,0
2017-12-08T20:03:20.989Z,0
2017-12-08T20:08:20.960Z,0
2017-12-08T20:13:20.870Z,0
2017-12-08T20:18:20.805Z,0
2017-12-08T20:23:20.790Z,0
2017-12-08T20:28:20.745Z,0
2017-12-08T20:33:20.659Z,0
2017-12-08T20:38:20.624Z,0
2017-12-08T20:43:20.534Z,0
2017-12-08T20:48:20.486Z,0
2017-12-08T20:53:20.436Z,0
2017-12-08T20:58:20.382Z,0
2017-12-08T21:03:20.316Z,0
2017-12-08T21:08:20.251Z,0
2017-12-08T21:13:20.197Z,0
2017-12-08T21:18:19.907Z,0
2017-12-08T21:23:20.091Z,0
2017-12-08T21:28:20.067Z,0
2017-12-08T21:33:20.028Z,0
2017-12-08T21:38:19.679Z,0
2017-12-08T21:43:19.909Z,0
2017-12-08T21:48:19.814Z,0
2017-12-08T21:53:19.759Z,0
2017-12-08T21:58:19.747Z,0
2017-12-08T22:03:19.750Z,0
2017-12-08T22:08:19.712Z,0
2017-12-08T22:13:19.556Z,0
2017-12-08T22:18:19.295Z,0
2017-12-08T22:23:19.443Z,0
2017-12-08T22:28:19.379Z,0
2017-12-08T22:33:19.347Z,0
2017-12-08T22:38:19.026Z,0
2017-12-08T22:43:19.259Z,0
2017-12-08T22:48:19.154Z,0
2017-12-08T22:53:19.168Z,0
2017-12-08T22:58:19.020Z,0
2017-12-08T23:03:19.000Z,0
2017-12-08T23:08:18.904Z,0
2017-12-08T23:13:18.872Z,0
2017-12-08T23:18:18.812Z,0
2017-12-08T23:23:18.730Z,0
2017-12-08T23:28:18.694Z,0
2017-12-08T23:33:18.598Z,0
2017-12-08T23:38:18.575Z,0
2017-12-08T23:43:18.492Z,0
2017-12-08T23:48:18.416Z,0
2017-12-08T23:53:17.847Z,0
2017-12-08T23:58:18.301Z,0
